| time (UTC) | temp C | wind direction | speed KPH | gust KPH | rain 1hr cm | rain 24hr cm | rain mn cm | humidity % | barometer mb |
| 20260508044037 | -17 | 0.0 | 0.0 | 0.00 | 0.00 | 0.00 | |||
| 20260508043036 | -17 | 0.0 | 0.0 | 0.00 | 0.00 | 0.00 | |||
| 20260508042038 | -17 | 0.0 | 0.0 | 0.00 | 0.00 | 0.00 | |||
| 20260508041036 | -17 | 0.0 | 0.0 | 0.00 | 0.00 | 0.00 | |||
| 20260508040058 | -17 | 0.0 | 0.0 | 0.00 | 0.00 | 0.00 | |||
| 20260508035036 | -17 | 0.0 | 0.0 | 0.00 | 0.00 | 0.00 | |||
| 20260508034038 | -17 | 0.0 | 0.0 | 0.00 | 0.00 | 0.00 | |||
| 20260508033039 | -17 | 0.0 | 0.0 | 0.00 | 0.00 | 0.00 | |||
| 20260508032036 | -17 | 0.0 | 0.0 | 0.00 | 0.00 | 0.00 | |||
| 20260508031036 | -17 | 0.0 | 0.0 | 0.00 | 0.00 | 0.00 | |||
| 20260508030116 | -17 | 0.0 | 0.0 | 0.00 | 0.00 | 0.00 | |||
| 20260508025037 | -17 | 0.0 | 0.0 | 0.00 | 0.00 | 0.00 | |||
| 20260508024036 | -17 | 0.0 | 0.0 | 0.00 | 0.00 | 0.00 | |||
| 20260508023039 | -17 | 0.0 | 0.0 | 0.00 | 0.00 | 0.00 | |||
| 20260508022057 | -17 | 0.0 | 0.0 | 0.00 | 0.00 | 0.00 | |||
| 20260508021036 | -17 | 0.0 | 0.0 | 0.00 | 0.00 | 0.00 | |||
| 20260508020035 | -17 | 0.0 | 0.0 | 0.00 | 0.00 | 0.00 | |||
| 20260508015038 | -17 | 0.0 | 0.0 | 0.00 | 0.00 | 0.00 | |||
| 20260508014619 | 10 | 0.0 | 0.0 | 0.00 | 0.00 | 0.00 | 35 | ||
| 20260508014052 | 10 | 0 | 6.4 | 8.0 | 0.00 | 0.00 | 0.00 | 35 | |
| 20260508013540 | 10 | 0 | 6.4 | 11.3 | 0.00 | 0.00 | 0.00 | 35 | |
| 20260508012539 | 10 | 0 | 1.6 | 8.0 | 0.00 | 0.00 | 0.00 | 37 | |
| 20260508011539 | 10 | 0 | 3.2 | 8.0 | 0.00 | 0.00 | 0.00 | 36 | |
| 20260508010539 | 10 | 0 | 8.0 | 14.5 | 0.00 | 0.00 | 0.00 | 35 | |
| 20260508005540 | 11 | 0 | 6.4 | 12.9 | 0.00 | 0.00 | 0.00 | 34 | |
| 20260508004541 | 11 | 0 | 9.7 | 16.1 | 0.00 | 0.00 | 0.00 | 34 | |
| 20260508003538 | 11 | 0 | 4.8 | 8.0 | 0.00 | 0.00 | 0.00 | 34 | |
| 20260508002542 | 11 | 0 | 11.3 | 16.1 | 0.00 | 0.00 | 0.00 | 33 | |
| 20260508001540 | 11 | 0 | 12.9 | 16.1 | 0.00 | 0.00 | 0.00 | 32 | |
| 20260508000540 | 11 | 0 | 6.4 | 16.1 | 0.00 | 0.00 | 0.00 | 33 | |
| 20260507235542 | 11 | 0 | 9.7 | 16.1 | 0.00 | 0.00 | 0.00 | 32 | |
| 20260507234541 | 11 | 0 | 6.4 | 16.1 | 0.00 | 0.00 | 0.00 | 32 | |
| 20260507233541 | 11 | 0 | 6.4 | 16.1 | 0.00 | 0.00 | 0.00 | 33 | |
| 20260507232601 | 11 | 0 | 11.3 | 16.1 | 0.00 | 0.00 | 0.00 | 32 | |
| 20260507231540 | 11 | 0 | 9.7 | 19.3 | 0.00 | 0.00 | 0.00 | 32 | |
| 20260507230541 | 11 | 0 | 8.0 | 16.1 | 0.00 | 0.00 | 0.00 | 32 | |
| 20260507225540 | 11 | 0 | 8.0 | 14.5 | 0.00 | 0.00 | 0.00 | 32 | |
| 20260507224539 | 11 | 0 | 11.3 | 16.1 | 0.00 | 0.00 | 0.00 | 32 | |
| 20260507223539 | 11 | 0 | 9.7 | 16.1 | 0.00 | 0.00 | 0.00 | 32 | |
| 20260507222539 | 11 | 0 | 12.9 | 17.7 | 0.00 | 0.00 | 0.00 | 32 | |
| 20260507221559 | 11 | 0 | 14.5 | 19.3 | 0.00 | 0.00 | 0.00 | 32 | |
| 20260507220541 | 11 | 0 | 9.7 | 17.7 | 0.00 | 0.00 | 0.00 | 32 | |
| 20260507215558 | 11 | 0 | 9.7 | 19.3 | 0.00 | 0.00 | 0.00 | 32 | |
| 20260507214541 | 11 | 0 | 9.7 | 17.7 | 0.00 | 0.00 | 0.00 | 30 | |
| 20260507213601 | 11 | 0 | 11.3 | 17.7 | 0.00 | 0.00 | 0.00 | 30 | |
| 20260507212539 | 11 | 0 | 9.7 | 17.7 | 0.00 | 0.00 | 0.00 | 28 | |
| 20260507211540 | 11 | 0 | 9.7 | 17.7 | 0.00 | 0.00 | 0.00 | 25 | |
| 20260507210541 | 11 | 0 | 11.3 | 16.1 | 0.00 | 0.00 | 0.00 | 25 | |
| 20260507205539 | 11 | 0 | 12.9 | 17.7 | 0.00 | 0.00 | 0.00 | 28 | |
| 20260507204538 | 11 | 0 | 8.0 | 14.5 | 0.00 | 0.00 | 0.00 | 30 | |
| 20260507203539 | 11 | 0 | 6.4 | 16.1 | 0.00 | 0.00 | 0.00 | 30 | |
| 20260507202600 | 11 | 0 | 6.4 | 16.1 | 0.00 | 0.00 | 0.00 | 31 | |
| 20260507201540 | 11 | 0 | 3.2 | 14.5 | 0.00 | 0.00 | 0.00 | 32 | |
| 20260507200541 | 11 | 0 | 6.4 | 14.5 | 0.00 | 0.00 | 0.00 | 33 | |
| 20260507195540 | 11 | 0 | 3.2 | 14.5 | 0.00 | 0.00 | 0.00 | 33 | |
| 20260507194540 | 11 | 0 | 8.0 | 16.1 | 0.00 | 0.00 | 0.00 | 32 | |
| 20260507193539 | 11 | 0 | 3.2 | 14.5 | 0.00 | 0.00 | 0.00 | 35 | |
| 20260507192539 | 10 | 0 | 4.8 | 14.5 | 0.00 | 0.00 | 0.00 | 35 | |
| 20260507191540 | 10 | 0 | 4.8 | 14.5 | 0.00 | 0.00 | 0.00 | 36 | |
| 20260507190540 | 10 | 0 | 6.4 | 16.1 | 0.00 | 0.00 | 0.00 | 35 | |
| 20260507185539 | 10 | 0 | 4.8 | 16.1 | 0.00 | 0.00 | 0.00 | 36 | |
| 20260507184559 | 11 | 0 | 1.6 | 9.7 | 0.00 | 0.00 | 0.00 | 37 | |
| 20260507183539 | 10 | 0 | 1.6 | 6.4 | 0.00 | 0.00 | 0.00 | 40 | |
| 20260507182538 | -17 | 0.0 | 0.0 | 0.00 | 0.00 | 0.00 | |||
| 20260507181536 | -17 | 0.0 | 0.0 | 0.00 | 0.00 | 0.00 | |||
| 20260507181037 | -17 | 0.0 | 0.0 | 0.00 | 0.00 | 0.00 | |||
| 20260507180037 | -17 | 0.0 | 0.0 | 0.00 | 0.00 | 0.00 | |||
| 20260507175036 | -17 | 0.0 | 0.0 | 0.00 | 0.00 | 0.00 | |||
| 20260507174036 | -17 | 0.0 | 0.0 | 0.00 | 0.00 | 0.00 | |||
| 20260507173037 | -17 | 0.0 | 0.0 | 0.00 | 0.00 | 0.00 | |||
| 20260507172039 | -17 | 0.0 | 0.0 | 0.00 | 0.00 | 0.00 | |||
| 20260507171057 | -17 | 0.0 | 0.0 | 0.00 | 0.00 | 0.00 | |||
| 20260507170037 | -17 | 0.0 | 0.0 | 0.00 | 0.00 | 0.00 | |||
| 20260507165057 | -17 | 0.0 | 0.0 | 0.00 | 0.00 | 0.00 | |||
| 20260507164038 | -17 | 0.0 | 0.0 | 0.00 | 0.00 | 0.00 | |||
| 20260507163038 | -17 | 0.0 | 0.0 | 0.00 | 0.00 | 0.00 | |||
| 20260507162058 | -17 | 0.0 | 0.0 | 0.00 | 0.00 | 0.00 | |||
| 20260507161037 | -17 | 0.0 | 0.0 | 0.00 | 0.00 | 0.00 | |||
| 20260507160036 | -17 | 0.0 | 0.0 | 0.00 | 0.00 | 0.00 | |||
| 20260507155037 | -17 | 0.0 | 0.0 | 0.00 | 0.00 | 0.00 | |||
| 20260507154036 | -17 | 0.0 | 0.0 | 0.00 | 0.00 | 0.00 | |||
| 20260507153038 | -17 | 0.0 | 0.0 | 0.00 | 0.00 | 0.00 | |||
| 20260507152036 | -17 | 0.0 | 0.0 | 0.00 | 0.00 | 0.00 | |||
| 20260507151037 | -17 | 0.0 | 0.0 | 0.00 | 0.00 | 0.00 | |||
| 20260507150037 | -17 | 0.0 | 0.0 | 0.00 | 0.00 | 0.00 | |||
| 20260507145037 | -17 | 0.0 | 0.0 | 0.00 | 0.00 | 0.00 | |||
| 20260507144036 | -17 | 0.0 | 0.0 | 0.00 | 0.00 | 0.00 | |||
| 20260507143036 | -17 | 0.0 | 0.0 | 0.00 | 0.00 | 0.00 | |||
| 20260507142058 | -17 | 0.0 | 0.0 | 0.00 | 0.00 | 0.00 | |||
| 20260507141038 | -17 | 0.0 | 0.0 | 0.00 | 0.00 | 0.00 | |||
| 20260507140039 | -17 | 0.0 | 0.0 | 0.00 | 0.00 | 0.00 | |||
| 20260507135036 | -17 | 0.0 | 0.0 | 0.00 | 0.00 | 0.00 | |||
| 20260507134117 | -17 | 0.0 | 0.0 | 0.00 | 0.00 | 0.00 | |||
| 20260507133037 | -17 | 0.0 | 0.0 | 0.00 | 0.00 | 0.00 | |||
| 20260507132039 | -17 | 0.0 | 0.0 | 0.00 | 0.00 | 0.00 | |||
| 20260507131036 | -17 | 0.0 | 0.0 | 0.00 | 0.00 | 0.00 | |||
| 20260507130039 | -17 | 0.0 | 0.0 | 0.00 | 0.00 | 0.00 | |||
| 20260507125037 | -17 | 0.0 | 0.0 | 0.00 | 0.00 | 0.00 | |||
| 20260507124057 | -17 | 0.0 | 0.0 | 0.00 | 0.00 | 0.00 | |||
| 20260507123038 | -17 | 0.0 | 0.0 | 0.00 | 0.00 | 0.00 | |||
| 20260507122038 | -17 | 0.0 | 0.0 | 0.00 | 0.00 | 0.00 | |||
| 20260507121058 | -17 | 0.0 | 0.0 | 0.00 | 0.00 | 0.00 | |||
| 20260507120037 | -17 | 0.0 | 0.0 | 0.00 | 0.00 | 0.00 | |||
| 20260507115036 | -17 | 0.0 | 0.0 | 0.00 | 0.00 | 0.00 | |||
| 20260507114118 | -17 | 0.0 | 0.0 | 0.00 | 0.00 | 0.00 | |||
| 20260507113038 | -17 | 0.0 | 0.0 | 0.00 | 0.00 | 0.00 | |||
| 20260507112038 | -17 | 0.0 | 0.0 | 0.00 | 0.00 | 0.00 | |||
| 20260507111038 | -17 | 0.0 | 0.0 | 0.00 | 0.00 | 0.00 | |||
| 20260507110117 | -17 | 0.0 | 0.0 | 0.00 | 0.00 | 0.00 | |||
| 20260507105036 | -17 | 0.0 | 0.0 | 0.00 | 0.00 | 0.00 | |||
| 20260507104038 | -17 | 0.0 | 0.0 | 0.00 | 0.00 | 0.00 | |||
| 20260507103037 | -17 | 0.0 | 0.0 | 0.00 | 0.00 | 0.00 | |||
| 20260507102037 | -17 | 0.0 | 0.0 | 0.00 | 0.00 | 0.00 | |||
| 20260507101037 | -17 | 0.0 | 0.0 | 0.00 | 0.00 | 0.00 | |||
| 20260507100036 | -17 | 0.0 | 0.0 | 0.00 | 0.00 | 0.00 | |||
| 20260507095037 | -17 | 0.0 | 0.0 | 0.00 | 0.00 | 0.00 | |||
| 20260507094035 | -17 | 0.0 | 0.0 | 0.00 | 0.00 | 0.00 | |||
| 20260507093039 | -17 | 0.0 | 0.0 | 0.00 | 0.00 | 0.00 | |||
| 20260507092037 | -17 | 0.0 | 0.0 | 0.00 | 0.00 | 0.00 | |||
| 20260507091035 | -17 | 0.0 | 0.0 | 0.00 | 0.00 | 0.00 | |||
| 20260507090058 | -17 | 0.0 | 0.0 | 0.00 | 0.00 | 0.00 | |||
| 20260507085038 | -17 | 0.0 | 0.0 | 0.00 | 0.00 | 0.00 | |||
| 20260507084038 | -17 | 0.0 | 0.0 | 0.00 | 0.00 | 0.00 | |||
| 20260507083057 | -17 | 0.0 | 0.0 | 0.00 | 0.00 | 0.00 | |||
| 20260507082038 | -17 | 0.0 | 0.0 | 0.00 | 0.00 | 0.00 | |||
| 20260507081537 | -17 | 0.0 | 0.0 | 0.00 | 0.00 | 0.00 | |||
| 20260507080536 | -17 | 0.0 | 0.0 | 0.00 | 0.00 | 0.00 | |||
| 20260507075557 | -17 | 0.0 | 0.0 | 0.00 | 0.00 | 0.00 | |||
| 20260507074536 | -17 | 0.0 | 0.0 | 0.00 | 0.00 | 0.00 | |||
| 20260507074036 | -17 | 0.0 | 0.0 | 0.00 | 0.00 | 0.00 | |||
| 20260507073058 | -17 | 0.0 | 0.0 | 0.00 | 0.00 | 0.00 | |||
| 20260507072038 | -17 | 0.0 | 0.0 | 0.00 | 0.00 | 0.00 | |||
| 20260507071038 | -17 | 0.0 | 0.0 | 0.00 | 0.00 | 0.00 | |||
| 20260507070035 | -17 | 0.0 | 0.0 | 0.00 | 0.00 | 0.00 | |||
| 20260507065059 | -17 | 0.0 | 0.0 | 0.00 | 0.00 | 0.00 | |||
| 20260507064035 | -17 | 0.0 | 0.0 | 0.00 | 0.00 | 0.00 | |||
| 20260507063038 | -17 | 0.0 | 0.0 | 0.00 | 0.00 | 0.00 | |||
| 20260507062037 | -17 | 0.0 | 0.0 | 0.00 | 0.00 | 0.00 | |||
| 20260507061037 | -17 | 0.0 | 0.0 | 0.00 | 0.00 | 0.00 | |||
| 20260507060159 | -17 | 0.0 | 0.0 | 0.00 | 0.00 | 0.00 | |||
| 20260507055036 | -17 | 0.0 | 0.0 | 0.00 | 0.00 | 0.00 | |||
| 20260507054037 | -17 | 0.0 | 0.0 | 0.00 | 0.00 | 0.00 | |||
| 20260507053037 | -17 | 0.0 | 0.0 | 0.00 | 0.00 | 0.00 | |||
| 20260507052037 | -17 | 0.0 | 0.0 | 0.00 | 0.00 | 0.00 | |||
| 20260507051037 | -17 | 0.0 | 0.0 | 0.00 | 0.00 | 0.00 | |||
| 20260507050035 | -17 | 0.0 | 0.0 | 0.00 | 0.00 | 0.00 | |||
| 20260507045035 | -17 | 0.0 | 0.0 | 0.00 | 0.00 | 0.00 |